EW2160 Weather Reports


Display with metric or nautical units.
time (UTC)temp
F
wind
direction
speed
MPH
gust
MPH
rain 1hr
in
rain 24hr
in
rain mn
in
humidity
%
barometer
mb
20221006012018 60 0.0 0.0 0.55 1.37 1.02 96 1022.5
20221006011017 60 0.0 1.0 0.43 1.23 0.87 96 1022.7
20221006010017 61 0.0 1.0 0.18 0.97 0.61 96 1022.9
20221006005017 61 0.0 1.0 0.10 0.93 0.52 96 1022.9
20221006004038 61 0.0 0.0 0.09 0.98 0.50 96 1022.9
20221006003017 61 0.0 0.0 0.09 1.15 0.50 96 1023.0
20221006002017 61 0.0 0.0 0.06 1.20 0.47 96 1023.1
20221006001017 61 0.0 0.0 0.03 1.19 0.44 96 1023.2
20221006000017 61 0.0 0.0 0.02 1.18 0.43 96 1023.2
20221005235017 61 0.0 0.0 0.01 1.17 0.43 96 1023.4
20221005234017 61 0.0 0.0 0.00 1.17 0.41 96 1023.4
20221005233024 61 0.0 0.0 0.01 1.17 0.41 96 1023.4
20221005232017 61 0.0 1.0 0.01 1.17 0.41 96 1023.4
20221005231017 61 0.0 0.0 0.01 1.17 0.41 97 1023.4
20221005230017 60 0.0 0.0 0.01 1.17 0.41 96 1023.6
20221005225016 60 0.0 0.0 0.01 1.17 0.41 96 1023.5
20221005224017 60 0.0 0.0 0.01 1.17 0.41 97 1023.6
20221005223017 60 0.0 1.0 0.00 1.16 0.40 97 1023.6
20221005222017 60 0.0 0.0 0.00 1.16 0.40 97 1023.7
20221005221017 60 0.0 0.0 0.00 1.16 0.40 97 1023.6
20221005220017 60 0.0 0.0 0.01 1.16 0.40 97 1023.7
20221005215017 59 0.0 0.0 0.01 1.16 0.40 97 1023.6
20221005214017 59 0.0 1.0 0.01 1.16 0.40 97 1023.7
20221005213016 59 0.0 0.0 0.01 1.16 0.40 97 1023.7
20221005212017 59 0.0 0.0 0.01 1.16 0.40 97 1023.6
20221005211016 59 0.0 0.0 0.01 1.16 0.40 97 1023.5
20221005210017 59 0.0 0.0 0.00 1.15 0.39 97 1023.4
20221005205017 58 0.0 0.0 0.00 1.15 0.39 97 1023.4
20221005204016 58 0.0 0.0 0.00 1.15 0.39 97 1023.4
20221005203016 58 0.0 0.0 0.03 1.15 0.39 97 1023.4
20221005202017 57 0.0 0.0 0.04 1.15 0.39 97 1023.2
20221005201017 57 0.0 0.0 0.04 1.15 0.39 97 1023.2
20221005200017 57 0.0 1.0 0.06 1.15 0.39 97 1023.2
20221005195016 57 0.0 0.0 0.07 1.15 0.39 97 1023.2
20221005194017 58 0.0 1.0 0.08 1.15 0.39 97 1023.3
20221005193017 58 0.0 0.0 0.06 1.12 0.36 97 1023.3
20221005192016 57 0.0 0.0 0.06 1.11 0.35 97 1023.3
20221005191021 57 0.0 0.0 0.07 1.11 0.35 97 1023.2
20221005190016 57 0.0 0.0 0.06 1.09 0.34 97 1023.1
20221005185037 57 0.0 1.0 0.06 1.08 0.32 97 1023.0
20221005184017 57 0.0 0.0 0.06 1.07 0.31 97 1023.0
20221005183016 58 0.0 1.0 0.05 1.06 0.30 97 1023.0
20221005182016 58 0.0 0.0 0.05 1.05 0.29 97 1022.9
20221005181016 58 0.0 1.0 0.06 1.04 0.28 97 1022.9
20221005180017 58 0.0 1.0 0.06 1.03 0.28 97 1022.8
20221005175016 58 0.0 0.0 0.06 1.02 0.27 97 1022.6
20221005174016 58 0.0 0.0 0.08 1.02 0.26 97 1022.6
20221005173037 57 0.0 0.0 0.09 1.01 0.25 96 1022.5
20221005172016 57 0.0 1.0 0.10 1.00 0.24 96 1022.5
20221005171016 57 0.0 0.0 0.10 0.98 0.22 96 1022.5
20221005170016 57 0.0 0.0 0.11 0.97 0.21 96 1022.6
20221005165036 57 0.0 1.0 0.11 0.96 0.20 96 1022.8
20221005164016 57 0.0 1.0 0.10 0.94 0.19 96 1022.9
20221005163016 57 0.0 0.0 0.08 0.95 0.16 95 1022.9
20221005162016 57 0.0 0.0 0.06 1.03 0.14 95 1023.1
20221005161016 57 0.0 1.0 0.08 1.05 0.12 95 1023.2
20221005160016 58 0.0 0.0 0.09 1.06 0.10 95 1023.1
20221005155016 58 0.0 0.0 0.08 1.07 0.09 95 1023.1
20221005154017 58 0.0 0.0 0.07 1.08 0.08 95 1023.1
20221005153036 58 0.0 0.0 0.07 1.18 0.08 95 1023.1
20221005152036 58 0.0 1.0 0.08 1.23 0.08 94 1023.4
20221005151017 57 0.0 0.0 0.04 1.39 0.04 94 1023.5
20221005150036 57 0.0 0.0 0.02 1.46 0.02 92 1023.6
20221005145056 57 0.0 0.0 0.02 1.46 0.02 91 1023.6
20221005144016 58 0.0 0.0 0.01 1.45 0.01 92 1023.8
20221005143015 58 0.0 1.0 0.01 1.45 0.01 93 1023.8
20221005142015 58 0.0 0.0 0.00 1.44 0.00 93 1023.8
20221005141015 58 0.0 0.0 0.00 1.44 0.00 92 1023.9
20221005140016 58 0.0 1.0 0.00 1.44 0.00 93 1024.1
20221005135015 58 0.0 0.0 0.00 1.44 0.00 92 1024.2
20221005134016 58 0.0 0.0 0.00 1.44 0.00 92 1024.4
20221005133015 58 0.0 0.0 0.01 1.44 0.00 92 1024.5
20221005132015 58 0.0 0.0 0.01 1.44 0.00 93 1024.6
20221005131016 58 0.0 1.0 0.01 1.44 0.00 92 1024.8
20221005130038 58 0.0 0.0 0.01 1.44 1.44 93 1024.9
20221005125015 58 0.0 0.0 0.01 1.44 1.44 93 1025.0
20221005124037 58 0.0 1.0 0.01 1.44 1.44 93 1025.1
20221005123016 58 0.0 0.0 0.00 1.43 1.43 93 1025.3
20221005122015 58 0.0 0.0 0.00 1.43 1.43 93 1025.3
20221005121015 58 0.0 0.0 0.00 1.43 1.43 93 1025.5
20221005120056 58 0.0 1.0 0.00 1.43 1.43 93 1025.5
20221005115016 58 0.0 0.0 0.00 1.43 1.43 93 1025.5
20221005114015 58 0.0 0.0 0.00 1.43 1.43 93 1025.5
20221005113015 58 0.0 0.0 0.01 1.43 1.43 93 1025.6
20221005112015 58 0.0 0.0 0.01 1.43 1.43 93 1025.6
20221005111036 58 0.0 0.0 0.01 1.43 1.43 94 1025.6
20221005110035 58 0.0 0.0 0.01 1.43 1.43 94 1025.6
20221005105016 58 0.0 0.0 0.01 1.43 1.43 94 1025.6
20221005104017 58 0.0 1.0 0.01 1.43 1.43 94 1025.7
20221005103017 58 0.0 0.0 0.01 1.43 1.43 94 1025.7
20221005102037 58 0.0 0.0 0.01 1.43 1.43 94 1025.8
20221005101017 58 0.0 1.0 0.01 1.43 1.43 94 1025.8